sensor_id;sensor_type;location;lat;lon;timestamp;P1;durP1;ratioP1;P2;durP2;ratioP2
1765;SDS011;880;52.452;8.656;2023-05-10T00:00:55;11.70;;;10.27;;
1765;SDS011;880;52.452;8.656;2023-05-10T00:03:22;11.70;;;10.48;;
1765;SDS011;880;52.452;8.656;2023-05-10T00:05:49;14.30;;;11.07;;
1765;SDS011;880;52.452;8.656;2023-05-10T00:08:16;12.40;;;11.18;;
1765;SDS011;880;52.452;8.656;2023-05-10T00:10:43;11.48;;;10.32;;
1765;SDS011;880;52.452;8.656;2023-05-10T00:13:10;12.73;;;10.82;;
1765;SDS011;880;52.452;8.656;2023-05-10T00:15:37;11.18;;;10.05;;
1765;SDS011;880;52.452;8.656;2023-05-10T00:18:04;13.75;;;11.60;;
1765;SDS011;880;52.452;8.656;2023-05-10T00:20:31;13.05;;;11.35;;
1765;SDS011;880;52.452;8.656;2023-05-10T00:22:58;13.13;;;11.20;;
1765;SDS011;880;52.452;8.656;2023-05-10T00:25:25;13.57;;;11.20;;
1765;SDS011;880;52.452;8.656;2023-05-10T00:27:52;15.07;;;10.82;;
1765;SDS011;880;52.452;8.656;2023-05-10T00:30:21;15.40;;;11.73;;
1765;SDS011;880;52.452;8.656;2023-05-10T00:32:48;14.75;;;11.60;;
1765;SDS011;880;52.452;8.656;2023-05-10T00:35:16;12.38;;;10.90;;
1765;SDS011;880;52.452;8.656;2023-05-10T00:37:43;14.10;;;10.73;;
1765;SDS011;880;52.452;8.656;2023-05-10T00:40:10;12.35;;;10.65;;
1765;SDS011;880;52.452;8.656;2023-05-10T00:42:38;14.00;;;11.88;;
1765;SDS011;880;52.452;8.656;2023-05-10T00:45:06;12.73;;;11.43;;
1765;SDS011;880;52.452;8.656;2023-05-10T00:47:34;14.85;;;12.07;;
1765;SDS011;880;52.452;8.656;2023-05-10T00:50:01;14.90;;;11.60;;
1765;SDS011;880;52.452;8.656;2023-05-10T00:52:29;15.32;;;11.70;;
1765;SDS011;880;52.452;8.656;2023-05-10T00:54:57;14.80;;;12.10;;
1765;SDS011;880;52.452;8.656;2023-05-10T00:57:24;14.93;;;11.93;;
1765;SDS011;880;52.452;8.656;2023-05-10T00:59:51;17.17;;;12.23;;
1765;SDS011;880;52.452;8.656;2023-05-10T01:02:18;13.32;;;11.32;;
1765;SDS011;880;52.452;8.656;2023-05-10T01:04:45;14.45;;;11.30;;
1765;SDS011;880;52.452;8.656;2023-05-10T01:07:13;14.45;;;12.07;;
1765;SDS011;880;52.452;8.656;2023-05-10T01:09:40;13.45;;;11.77;;
1765;SDS011;880;52.452;8.656;2023-05-10T01:12:06;15.98;;;13.07;;
1765;SDS011;880;52.452;8.656;2023-05-10T01:14:34;17.50;;;13.45;;
1765;SDS011;880;52.452;8.656;2023-05-10T01:17:02;16.52;;;12.70;;
1765;SDS011;880;52.452;8.656;2023-05-10T01:19:31;13.45;;;11.73;;
1765;SDS011;880;52.452;8.656;2023-05-10T01:22:03;16.23;;;12.32;;
1765;SDS011;880;52.452;8.656;2023-05-10T01:25:31;13.90;;;12.07;;
1765;SDS011;880;52.452;8.656;2023-05-10T01:34:35;14.10;;;10.75;;
1765;SDS011;880;52.452;8.656;2023-05-10T01:37:45;16.80;;;12.48;;
1765;SDS011;880;52.452;8.656;2023-05-10T01:43:18;14.23;;;11.80;;
1765;SDS011;880;52.452;8.656;2023-05-10T01:46:02;17.77;;;13.95;;
1765;SDS011;880;52.452;8.656;2023-05-10T01:48:38;14.63;;;11.77;;
1765;SDS011;880;52.452;8.656;2023-05-10T01:51:14;16.25;;;12.55;;
1765;SDS011;880;52.452;8.656;2023-05-10T01:53:47;17.67;;;12.27;;
1765;SDS011;880;52.452;8.656;2023-05-10T01:56:16;16.98;;;13.43;;
1765;SDS011;880;52.452;8.656;2023-05-10T01:58:47;14.65;;;12.45;;
1765;SDS011;880;52.452;8.656;2023-05-10T02:01:16;15.85;;;12.40;;
1765;SDS011;880;52.452;8.656;2023-05-10T02:06:13;13.07;;;11.05;;
1765;SDS011;880;52.452;8.656;2023-05-10T02:08:42;14.50;;;11.25;;
1765;SDS011;880;52.452;8.656;2023-05-10T02:11:12;17.52;;;12.05;;
1765;SDS011;880;52.452;8.656;2023-05-10T02:13:40;14.73;;;11.20;;
1765;SDS011;880;52.452;8.656;2023-05-10T02:16:09;14.38;;;11.70;;
1765;SDS011;880;52.452;8.656;2023-05-10T02:18:38;14.60;;;11.52;;
1765;SDS011;880;52.452;8.656;2023-05-10T02:21:07;14.07;;;12.05;;
1765;SDS011;880;52.452;8.656;2023-05-10T02:23:38;15.25;;;11.77;;
1765;SDS011;880;52.452;8.656;2023-05-10T02:26:05;16.17;;;12.63;;
1765;SDS011;880;52.452;8.656;2023-05-10T02:28:34;15.35;;;12.63;;
1765;SDS011;880;52.452;8.656;2023-05-10T02:31:04;15.57;;;12.75;;
1765;SDS011;880;52.452;8.656;2023-05-10T02:33:32;15.00;;;12.10;;
1765;SDS011;880;52.452;8.656;2023-05-10T02:36:01;16.00;;;12.57;;
1765;SDS011;880;52.452;8.656;2023-05-10T02:38:30;14.85;;;12.38;;
1765;SDS011;880;52.452;8.656;2023-05-10T02:40:59;15.48;;;12.98;;
1765;SDS011;880;52.452;8.656;2023-05-10T02:43:26;18.45;;;12.20;;
1765;SDS011;880;52.452;8.656;2023-05-10T02:45:55;15.75;;;12.27;;
1765;SDS011;880;52.452;8.656;2023-05-10T02:48:22;16.10;;;13.05;;
1765;SDS011;880;52.452;8.656;2023-05-10T02:50:49;14.95;;;12.23;;
1765;SDS011;880;52.452;8.656;2023-05-10T02:53:20;17.65;;;12.40;;
1765;SDS011;880;52.452;8.656;2023-05-10T02:55:57;14.93;;;12.25;;
1765;SDS011;880;52.452;8.656;2023-05-10T02:58:30;17.80;;;13.10;;
1765;SDS011;880;52.452;8.656;2023-05-10T03:00:58;15.95;;;13.48;;
1765;SDS011;880;52.452;8.656;2023-05-10T03:03:26;15.20;;;12.30;;
1765;SDS011;880;52.452;8.656;2023-05-10T03:05:53;17.23;;;13.82;;
1765;SDS011;880;52.452;8.656;2023-05-10T03:08:22;19.20;;;14.00;;
1765;SDS011;880;52.452;8.656;2023-05-10T03:10:54;16.17;;;12.57;;
1765;SDS011;880;52.452;8.656;2023-05-10T03:16:36;15.88;;;11.98;;
1765;SDS011;880;52.452;8.656;2023-05-10T03:19:17;16.92;;;12.70;;
1765;SDS011;880;52.452;8.656;2023-05-10T03:21:53;17.08;;;12.25;;
1765;SDS011;880;52.452;8.656;2023-05-10T03:24:29;15.10;;;11.60;;
1765;SDS011;880;52.452;8.656;2023-05-10T03:26:58;15.07;;;12.32;;
1765;SDS011;880;52.452;8.656;2023-05-10T03:29:29;22.00;;;12.68;;
1765;SDS011;880;52.452;8.656;2023-05-10T03:31:58;16.08;;;11.70;;
1765;SDS011;880;52.452;8.656;2023-05-10T03:34:29;14.55;;;10.32;;
1765;SDS011;880;52.452;8.656;2023-05-10T03:36:57;13.07;;;10.88;;
1765;SDS011;880;52.452;8.656;2023-05-10T03:39:27;16.20;;;11.63;;
1765;SDS011;880;52.452;8.656;2023-05-10T03:41:57;14.75;;;12.82;;
1765;SDS011;880;52.452;8.656;2023-05-10T03:44:24;14.20;;;11.52;;
1765;SDS011;880;52.452;8.656;2023-05-10T03:46:51;14.55;;;11.35;;
1765;SDS011;880;52.452;8.656;2023-05-10T03:49:18;15.32;;;11.90;;
1765;SDS011;880;52.452;8.656;2023-05-10T03:51:45;16.70;;;12.07;;
1765;SDS011;880;52.452;8.656;2023-05-10T03:54:12;13.38;;;10.75;;
1765;SDS011;880;52.452;8.656;2023-05-10T03:56:40;14.88;;;12.32;;
1765;SDS011;880;52.452;8.656;2023-05-10T03:59:07;12.13;;;10.73;;
1765;SDS011;880;52.452;8.656;2023-05-10T04:01:35;13.10;;;11.15;;
1765;SDS011;880;52.452;8.656;2023-05-10T04:04:02;15.68;;;10.85;;
1765;SDS011;880;52.452;8.656;2023-05-10T04:06:30;12.85;;;10.07;;
1765;SDS011;880;52.452;8.656;2023-05-10T04:08:58;14.13;;;11.65;;
1765;SDS011;880;52.452;8.656;2023-05-10T04:11:26;16.05;;;12.95;;
1765;SDS011;880;52.452;8.656;2023-05-10T04:13:54;16.75;;;13.07;;
1765;SDS011;880;52.452;8.656;2023-05-10T04:16:20;16.10;;;13.73;;
1765;SDS011;880;52.452;8.656;2023-05-10T04:18:48;15.52;;;12.18;;
1765;SDS011;880;52.452;8.656;2023-05-10T04:21:15;15.25;;;12.40;;
1765;SDS011;880;52.452;8.656;2023-05-10T04:23:42;17.55;;;15.32;;
1765;SDS011;880;52.452;8.656;2023-05-10T04:26:09;17.42;;;14.77;;
1765;SDS011;880;52.452;8.656;2023-05-10T04:28:36;18.58;;;14.65;;
1765;SDS011;880;52.452;8.656;2023-05-10T04:31:08;17.95;;;14.45;;
1765;SDS011;880;52.452;8.656;2023-05-10T04:33:36;17.42;;;14.38;;
1765;SDS011;880;52.452;8.656;2023-05-10T04:36:03;11.35;;;9.95;;
1765;SDS011;880;52.452;8.656;2023-05-10T04:38:31;7.88;;;7.13;;
1765;SDS011;880;52.452;8.656;2023-05-10T04:41:07;10.25;;;7.38;;
1765;SDS011;880;52.452;8.656;2023-05-10T04:43:36;7.43;;;6.72;;
1765;SDS011;880;52.452;8.656;2023-05-10T04:46:04;7.90;;;7.10;;
1765;SDS011;880;52.452;8.656;2023-05-10T04:48:31;6.90;;;6.30;;
1765;SDS011;880;52.452;8.656;2023-05-10T04:50:58;6.57;;;5.97;;
1765;SDS011;880;52.452;8.656;2023-05-10T04:53:25;7.25;;;6.70;;
1765;SDS011;880;52.452;8.656;2023-05-10T04:55:52;7.15;;;6.45;;
1765;SDS011;880;52.452;8.656;2023-05-10T04:58:19;7.25;;;6.72;;
1765;SDS011;880;52.452;8.656;2023-05-10T05:00:47;5.43;;;5.03;;
1765;SDS011;880;52.452;8.656;2023-05-10T05:03:14;5.47;;;5.07;;
1765;SDS011;880;52.452;8.656;2023-05-10T05:05:41;5.72;;;5.32;;
1765;SDS011;880;52.452;8.656;2023-05-10T05:08:08;5.78;;;5.43;;
1765;SDS011;880;52.452;8.656;2023-05-10T05:10:35;6.25;;;5.75;;
1765;SDS011;880;52.452;8.656;2023-05-10T05:13:02;6.22;;;5.75;;
1765;SDS011;880;52.452;8.656;2023-05-10T05:15:29;6.50;;;6.10;;
1765;SDS011;880;52.452;8.656;2023-05-10T05:17:56;5.80;;;5.40;;
1765;SDS011;880;52.452;8.656;2023-05-10T05:20:24;6.80;;;6.18;;
1765;SDS011;880;52.452;8.656;2023-05-10T05:22:51;7.53;;;7.03;;
1765;SDS011;880;52.452;8.656;2023-05-10T05:25:17;7.07;;;6.53;;
1765;SDS011;880;52.452;8.656;2023-05-10T05:27:44;7.85;;;7.20;;
1765;SDS011;880;52.452;8.656;2023-05-10T05:30:11;7.25;;;6.65;;
1765;SDS011;880;52.452;8.656;2023-05-10T05:32:38;7.88;;;6.05;;
1765;SDS011;880;52.452;8.656;2023-05-10T05:35:06;6.72;;;6.13;;
1765;SDS011;880;52.452;8.656;2023-05-10T05:37:33;6.85;;;6.22;;
1765;SDS011;880;52.452;8.656;2023-05-10T05:40:01;7.65;;;7.05;;
1765;SDS011;880;52.452;8.656;2023-05-10T05:42:28;6.28;;;5.78;;
1765;SDS011;880;52.452;8.656;2023-05-10T05:44:57;7.32;;;6.70;;
1765;SDS011;880;52.452;8.656;2023-05-10T05:47:24;7.13;;;6.60;;
1765;SDS011;880;52.452;8.656;2023-05-10T05:49:51;8.63;;;7.82;;
1765;SDS011;880;52.452;8.656;2023-05-10T05:52:18;9.13;;;8.32;;
1765;SDS011;880;52.452;8.656;2023-05-10T05:54:45;7.70;;;7.05;;
1765;SDS011;880;52.452;8.656;2023-05-10T05:57:12;7.70;;;7.05;;
1765;SDS011;880;52.452;8.656;2023-05-10T05:59:39;8.35;;;7.55;;
1765;SDS011;880;52.452;8.656;2023-05-10T06:02:10;7.88;;;7.18;;
1765;SDS011;880;52.452;8.656;2023-05-10T06:04:36;8.32;;;7.43;;
1765;SDS011;880;52.452;8.656;2023-05-10T06:07:04;9.63;;;8.65;;
1765;SDS011;880;52.452;8.656;2023-05-10T06:09:31;9.38;;;7.70;;
1765;SDS011;880;52.452;8.656;2023-05-10T06:11:58;9.10;;;8.30;;
1765;SDS011;880;52.452;8.656;2023-05-10T06:14:25;8.93;;;8.02;;
1765;SDS011;880;52.452;8.656;2023-05-10T06:16:52;9.02;;;8.00;;
1765;SDS011;880;52.452;8.656;2023-05-10T06:19:19;7.85;;;7.15;;
1765;SDS011;880;52.452;8.656;2023-05-10T06:21:46;8.88;;;8.07;;
1765;SDS011;880;52.452;8.656;2023-05-10T06:24:13;7.82;;;7.13;;
1765;SDS011;880;52.452;8.656;2023-05-10T06:26:40;7.70;;;7.00;;
1765;SDS011;880;52.452;8.656;2023-05-10T06:29:07;9.82;;;8.88;;
1765;SDS011;880;52.452;8.656;2023-05-10T06:31:34;8.45;;;7.65;;
1765;SDS011;880;52.452;8.656;2023-05-10T06:34:07;9.43;;;8.52;;
1765;SDS011;880;52.452;8.656;2023-05-10T06:36:34;6.68;;;6.07;;
1765;SDS011;880;52.452;8.656;2023-05-10T06:39:02;10.32;;;9.32;;
1765;SDS011;880;52.452;8.656;2023-05-10T06:41:29;8.93;;;8.13;;
1765;SDS011;880;52.452;8.656;2023-05-10T06:43:55;9.70;;;8.70;;
1765;SDS011;880;52.452;8.656;2023-05-10T06:46:22;8.93;;;8.02;;
1765;SDS011;880;52.452;8.656;2023-05-10T06:48:50;8.15;;;7.45;;
1765;SDS011;880;52.452;8.656;2023-05-10T06:51:17;8.77;;;7.88;;
1765;SDS011;880;52.452;8.656;2023-05-10T06:53:44;7.75;;;7.05;;
1765;SDS011;880;52.452;8.656;2023-05-10T06:56:11;9.18;;;8.35;;
1765;SDS011;880;52.452;8.656;2023-05-10T06:58:38;9.35;;;8.55;;
1765;SDS011;880;52.452;8.656;2023-05-10T07:01:05;8.35;;;7.63;;
1765;SDS011;880;52.452;8.656;2023-05-10T07:03:32;8.98;;;8.07;;
1765;SDS011;880;52.452;8.656;2023-05-10T07:06:00;9.07;;;8.20;;
1765;SDS011;880;52.452;8.656;2023-05-10T07:08:31;9.23;;;8.40;;
1765;SDS011;880;52.452;8.656;2023-05-10T07:11:01;9.13;;;8.35;;
1765;SDS011;880;52.452;8.656;2023-05-10T07:13:30;7.47;;;6.78;;
1765;SDS011;880;52.452;8.656;2023-05-10T07:15:58;8.00;;;7.30;;
1765;SDS011;880;52.452;8.656;2023-05-10T07:18:26;7.93;;;7.18;;
1765;SDS011;880;52.452;8.656;2023-05-10T07:20:54;9.95;;;7.55;;
1765;SDS011;880;52.452;8.656;2023-05-10T07:23:21;9.10;;;8.25;;
1765;SDS011;880;52.452;8.656;2023-05-10T07:25:48;9.68;;;8.60;;
1765;SDS011;880;52.452;8.656;2023-05-10T07:28:18;7.78;;;6.68;;
1765;SDS011;880;52.452;8.656;2023-05-10T07:30:45;8.80;;;8.00;;
1765;SDS011;880;52.452;8.656;2023-05-10T07:33:13;8.88;;;8.13;;
1765;SDS011;880;52.452;8.656;2023-05-10T07:35:41;7.72;;;6.72;;
1765;SDS011;880;52.452;8.656;2023-05-10T07:38:09;8.05;;;7.25;;
1765;SDS011;880;52.452;8.656;2023-05-10T07:40:37;8.75;;;7.95;;
1765;SDS011;880;52.452;8.656;2023-05-10T07:43:05;7.82;;;7.20;;
1765;SDS011;880;52.452;8.656;2023-05-10T07:45:33;8.18;;;7.47;;
1765;SDS011;880;52.452;8.656;2023-05-10T07:48:00;9.23;;;8.30;;
1765;SDS011;880;52.452;8.656;2023-05-10T07:50:27;7.75;;;7.13;;
1765;SDS011;880;52.452;8.656;2023-05-10T07:52:54;9.40;;;8.23;;
1765;SDS011;880;52.452;8.656;2023-05-10T07:55:21;10.27;;;9.23;;
1765;SDS011;880;52.452;8.656;2023-05-10T07:57:48;10.38;;;8.38;;
1765;SDS011;880;52.452;8.656;2023-05-10T08:00:19;10.77;;;9.75;;
1765;SDS011;880;52.452;8.656;2023-05-10T08:02:46;10.38;;;9.27;;
1765;SDS011;880;52.452;8.656;2023-05-10T08:05:14;10.45;;;9.55;;
1765;SDS011;880;52.452;8.656;2023-05-10T08:07:41;11.50;;;9.27;;
1765;SDS011;880;52.452;8.656;2023-05-10T08:10:09;10.32;;;9.32;;
1765;SDS011;880;52.452;8.656;2023-05-10T08:12:37;10.00;;;9.02;;
1765;SDS011;880;52.452;8.656;2023-05-10T08:15:04;12.10;;;10.70;;
1765;SDS011;880;52.452;8.656;2023-05-10T08:17:32;11.68;;;10.48;;
1765;SDS011;880;52.452;8.656;2023-05-10T08:19:59;10.15;;;9.25;;
1765;SDS011;880;52.452;8.656;2023-05-10T08:22:27;12.15;;;10.98;;
1765;SDS011;880;52.452;8.656;2023-05-10T08:24:53;10.35;;;9.35;;
1765;SDS011;880;52.452;8.656;2023-05-10T08:27:20;13.88;;;10.60;;
1765;SDS011;880;52.452;8.656;2023-05-10T08:29:47;10.88;;;9.77;;
1765;SDS011;880;52.452;8.656;2023-05-10T08:32:16;11.65;;;10.50;;
1765;SDS011;880;52.452;8.656;2023-05-10T08:34:43;15.60;;;11.45;;
1765;SDS011;880;52.452;8.656;2023-05-10T08:37:10;12.38;;;11.18;;
1765;SDS011;880;52.452;8.656;2023-05-10T08:39:39;14.38;;;12.18;;
1765;SDS011;880;52.452;8.656;2023-05-10T08:42:06;13.70;;;11.25;;
1765;SDS011;880;52.452;8.656;2023-05-10T08:44:35;15.05;;;13.50;;
1765;SDS011;880;52.452;8.656;2023-05-10T08:47:06;15.65;;;14.05;;
1765;SDS011;880;52.452;8.656;2023-05-10T08:49:35;17.85;;;12.45;;
1765;SDS011;880;52.452;8.656;2023-05-10T08:52:04;12.90;;;11.63;;
1765;SDS011;880;52.452;8.656;2023-05-10T08:57:00;16.77;;;11.63;;
1765;SDS011;880;52.452;8.656;2023-05-10T08:59:28;15.80;;;12.27;;
1765;SDS011;880;52.452;8.656;2023-05-10T09:01:58;20.73;;;15.77;;
1765;SDS011;880;52.452;8.656;2023-05-10T09:04:26;29.95;;;16.00;;
1765;SDS011;880;52.452;8.656;2023-05-10T09:06:54;76.63;;;37.17;;
1765;SDS011;880;52.452;8.656;2023-05-10T09:09:21;28.33;;;20.15;;
1765;SDS011;880;52.452;8.656;2023-05-10T09:11:50;14.15;;;12.50;;
1765;SDS011;880;52.452;8.656;2023-05-10T09:14:18;13.30;;;11.88;;
1765;SDS011;880;52.452;8.656;2023-05-10T09:16:46;12.50;;;11.23;;
1765;SDS011;880;52.452;8.656;2023-05-10T09:19:14;13.50;;;12.13;;
1765;SDS011;880;52.452;8.656;2023-05-10T09:21:41;14.18;;;11.65;;
1765;SDS011;880;52.452;8.656;2023-05-10T09:24:08;16.40;;;12.52;;
1765;SDS011;880;52.452;8.656;2023-05-10T09:26:35;12.93;;;11.65;;
1765;SDS011;880;52.452;8.656;2023-05-10T09:29:16;17.65;;;11.95;;
1765;SDS011;880;52.452;8.656;2023-05-10T09:31:47;13.93;;;11.20;;
1765;SDS011;880;52.452;8.656;2023-05-10T09:34:30;13.00;;;11.85;;
1765;SDS011;880;52.452;8.656;2023-05-10T09:36:59;16.15;;;12.82;;
1765;SDS011;880;52.452;8.656;2023-05-10T09:39:38;11.82;;;10.77;;
1765;SDS011;880;52.452;8.656;2023-05-10T09:42:06;12.02;;;10.88;;
1765;SDS011;880;52.452;8.656;2023-05-10T09:47:03;12.40;;;11.13;;
1765;SDS011;880;52.452;8.656;2023-05-10T09:49:30;13.05;;;11.57;;
1765;SDS011;880;52.452;8.656;2023-05-10T09:52:01;16.77;;;11.90;;
1765;SDS011;880;52.452;8.656;2023-05-10T09:54:33;13.43;;;11.20;;
1765;SDS011;880;52.452;8.656;2023-05-10T09:57:01;13.65;;;11.23;;
1765;SDS011;880;52.452;8.656;2023-05-10T09:59:28;15.52;;;12.85;;
1765;SDS011;880;52.452;8.656;2023-05-10T10:01:56;16.17;;;14.30;;
1765;SDS011;880;52.452;8.656;2023-05-10T10:04:25;17.25;;;13.63;;
1765;SDS011;880;52.452;8.656;2023-05-10T10:06:59;16.55;;;13.40;;
1765;SDS011;880;52.452;8.656;2023-05-10T10:09:30;20.23;;;12.93;;
1765;SDS011;880;52.452;8.656;2023-05-10T10:14:30;18.38;;;13.00;;
1765;SDS011;880;52.452;8.656;2023-05-10T10:16:57;23.60;;;12.55;;
1765;SDS011;880;52.452;8.656;2023-05-10T10:19:29;14.35;;;11.88;;
1765;SDS011;880;52.452;8.656;2023-05-10T10:24:26;19.27;;;13.50;;
1765;SDS011;880;52.452;8.656;2023-05-10T10:26:54;19.48;;;14.70;;
1765;SDS011;880;52.452;8.656;2023-05-10T10:34:38;18.80;;;12.75;;
1765;SDS011;880;52.452;8.656;2023-05-10T10:37:06;19.33;;;14.23;;
1765;SDS011;880;52.452;8.656;2023-05-10T10:39:33;17.67;;;14.15;;
1765;SDS011;880;52.452;8.656;2023-05-10T10:42:03;22.23;;;15.50;;
1765;SDS011;880;52.452;8.656;2023-05-10T10:44:35;26.70;;;15.98;;
1765;SDS011;880;52.452;8.656;2023-05-10T10:55:03;15.93;;;12.23;;
1765;SDS011;880;52.452;8.656;2023-05-10T10:57:51;21.88;;;16.58;;
1765;SDS011;880;52.452;8.656;2023-05-10T11:03:06;13.45;;;12.13;;
1765;SDS011;880;52.452;8.656;2023-05-10T11:05:44;15.80;;;12.85;;
1765;SDS011;880;52.452;8.656;2023-05-10T11:11:04;16.30;;;13.45;;
1765;SDS011;880;52.452;8.656;2023-05-10T11:21:31;17.58;;;13.45;;
1765;SDS011;880;52.452;8.656;2023-05-10T11:24:00;16.77;;;13.90;;
1765;SDS011;880;52.452;8.656;2023-05-10T11:26:32;18.33;;;12.68;;
1765;SDS011;880;52.452;8.656;2023-05-10T11:29:01;20.50;;;14.32;;
1765;SDS011;880;52.452;8.656;2023-05-10T11:31:31;20.08;;;15.38;;
1765;SDS011;880;52.452;8.656;2023-05-10T11:33:58;13.25;;;11.88;;
1765;SDS011;880;52.452;8.656;2023-05-10T11:36:32;18.17;;;13.80;;
1765;SDS011;880;52.452;8.656;2023-05-10T11:39:01;16.27;;;13.38;;
1765;SDS011;880;52.452;8.656;2023-05-10T11:41:30;15.35;;;13.68;;
1765;SDS011;880;52.452;8.656;2023-05-10T11:43:57;17.33;;;12.93;;
1765;SDS011;880;52.452;8.656;2023-05-10T11:46:26;19.98;;;13.98;;
1765;SDS011;880;52.452;8.656;2023-05-10T11:48:59;17.15;;;15.18;;
1765;SDS011;880;52.452;8.656;2023-05-10T11:51:28;17.75;;;13.38;;
1765;SDS011;880;52.452;8.656;2023-05-10T11:53:56;18.65;;;15.13;;
1765;SDS011;880;52.452;8.656;2023-05-10T11:56:23;20.38;;;13.90;;
1765;SDS011;880;52.452;8.656;2023-05-10T11:58:53;15.85;;;14.15;;
1765;SDS011;880;52.452;8.656;2023-05-10T12:01:26;17.58;;;15.05;;
1765;SDS011;880;52.452;8.656;2023-05-10T12:03:54;15.18;;;13.40;;
1765;SDS011;880;52.452;8.656;2023-05-10T12:06:27;19.23;;;15.13;;
1765;SDS011;880;52.452;8.656;2023-05-10T12:09:02;19.85;;;14.10;;
1765;SDS011;880;52.452;8.656;2023-05-10T12:11:36;20.00;;;15.40;;
1765;SDS011;880;52.452;8.656;2023-05-10T12:14:09;21.60;;;16.17;;
1765;SDS011;880;52.452;8.656;2023-05-10T12:16:36;13.80;;;12.40;;
1765;SDS011;880;52.452;8.656;2023-05-10T12:19:03;20.67;;;15.95;;
1765;SDS011;880;52.452;8.656;2023-05-10T12:21:32;15.13;;;13.52;;
1765;SDS011;880;52.452;8.656;2023-05-10T12:24:01;20.85;;;15.10;;
1765;SDS011;880;52.452;8.656;2023-05-10T12:26:29;19.48;;;14.32;;
1765;SDS011;880;52.452;8.656;2023-05-10T12:29:16;19.77;;;16.27;;
1765;SDS011;880;52.452;8.656;2023-05-10T12:31:54;21.05;;;15.27;;
1765;SDS011;880;52.452;8.656;2023-05-10T12:34:30;18.88;;;13.18;;
1765;SDS011;880;52.452;8.656;2023-05-10T12:37:00;20.40;;;15.30;;
1765;SDS011;880;52.452;8.656;2023-05-10T12:39:41;23.27;;;15.65;;
1765;SDS011;880;52.452;8.656;2023-05-10T12:42:10;19.13;;;15.85;;
1765;SDS011;880;52.452;8.656;2023-05-10T12:44:37;15.77;;;12.18;;
1765;SDS011;880;52.452;8.656;2023-05-10T12:47:05;18.08;;;13.43;;
1765;SDS011;880;52.452;8.656;2023-05-10T12:49:33;15.55;;;13.18;;
1765;SDS011;880;52.452;8.656;2023-05-10T12:52:00;16.90;;;13.68;;
1765;SDS011;880;52.452;8.656;2023-05-10T12:54:27;17.98;;;15.35;;
1765;SDS011;880;52.452;8.656;2023-05-10T12:56:54;19.88;;;14.77;;
1765;SDS011;880;52.452;8.656;2023-05-10T12:59:21;18.00;;;13.25;;
1765;SDS011;880;52.452;8.656;2023-05-10T13:01:49;17.70;;;14.07;;
1765;SDS011;880;52.452;8.656;2023-05-10T13:04:16;19.45;;;12.20;;
1765;SDS011;880;52.452;8.656;2023-05-10T13:06:43;13.75;;;11.10;;
1765;SDS011;880;52.452;8.656;2023-05-10T13:09:10;10.88;;;9.70;;
1765;SDS011;880;52.452;8.656;2023-05-10T13:11:37;10.57;;;9.65;;
1765;SDS011;880;52.452;8.656;2023-05-10T13:14:04;10.77;;;9.27;;
1765;SDS011;880;52.452;8.656;2023-05-10T13:16:31;10.60;;;9.60;;
1765;SDS011;880;52.452;8.656;2023-05-10T13:18:58;10.07;;;9.18;;
1765;SDS011;880;52.452;8.656;2023-05-10T13:21:25;11.70;;;10.68;;
1765;SDS011;880;52.452;8.656;2023-05-10T13:23:52;10.90;;;9.88;;
1765;SDS011;880;52.452;8.656;2023-05-10T13:26:19;10.98;;;10.07;;
1765;SDS011;880;52.452;8.656;2023-05-10T13:28:47;10.43;;;9.55;;
1765;SDS011;880;52.452;8.656;2023-05-10T13:31:15;10.25;;;9.50;;
1765;SDS011;880;52.452;8.656;2023-05-10T13:33:42;9.30;;;8.55;;
1765;SDS011;880;52.452;8.656;2023-05-10T13:36:09;10.43;;;9.60;;
1765;SDS011;880;52.452;8.656;2023-05-10T13:38:36;10.00;;;9.20;;
1765;SDS011;880;52.452;8.656;2023-05-10T13:41:03;9.93;;;9.00;;
1765;SDS011;880;52.452;8.656;2023-05-10T13:43:30;10.88;;;9.93;;
1765;SDS011;880;52.452;8.656;2023-05-10T13:45:57;10.30;;;9.27;;
1765;SDS011;880;52.452;8.656;2023-05-10T13:48:24;11.52;;;9.98;;
1765;SDS011;880;52.452;8.656;2023-05-10T13:50:51;10.63;;;9.65;;
1765;SDS011;880;52.452;8.656;2023-05-10T13:53:18;10.10;;;8.98;;
1765;SDS011;880;52.452;8.656;2023-05-10T13:55:45;11.27;;;10.30;;
1765;SDS011;880;52.452;8.656;2023-05-10T13:58:13;10.25;;;9.35;;
1765;SDS011;880;52.452;8.656;2023-05-10T14:00:40;9.65;;;8.85;;
1765;SDS011;880;52.452;8.656;2023-05-10T14:03:07;9.85;;;9.15;;
1765;SDS011;880;52.452;8.656;2023-05-10T14:05:37;9.45;;;8.88;;
1765;SDS011;880;52.452;8.656;2023-05-10T14:08:04;9.35;;;8.65;;
1765;SDS011;880;52.452;8.656;2023-05-10T14:10:31;8.48;;;7.97;;
1765;SDS011;880;52.452;8.656;2023-05-10T14:12:58;9.10;;;8.48;;
1765;SDS011;880;52.452;8.656;2023-05-10T14:15:25;8.43;;;7.93;;
1765;SDS011;880;52.452;8.656;2023-05-10T14:17:52;8.70;;;7.90;;
1765;SDS011;880;52.452;8.656;2023-05-10T14:20:19;9.07;;;8.32;;
1765;SDS011;880;52.452;8.656;2023-05-10T14:22:46;8.55;;;7.95;;
1765;SDS011;880;52.452;8.656;2023-05-10T14:25:13;9.23;;;8.35;;
1765;SDS011;880;52.452;8.656;2023-05-10T14:27:41;9.52;;;8.93;;
1765;SDS011;880;52.452;8.656;2023-05-10T14:30:08;10.02;;;9.32;;
1765;SDS011;880;52.452;8.656;2023-05-10T14:32:36;9.38;;;8.80;;
1765;SDS011;880;52.452;8.656;2023-05-10T14:35:03;8.98;;;8.13;;
1765;SDS011;880;52.452;8.656;2023-05-10T14:37:32;9.15;;;8.32;;
1765;SDS011;880;52.452;8.656;2023-05-10T14:39:59;8.10;;;7.57;;
1765;SDS011;880;52.452;8.656;2023-05-10T14:42:26;8.73;;;8.13;;
1765;SDS011;880;52.452;8.656;2023-05-10T14:44:53;8.73;;;7.85;;
1765;SDS011;880;52.452;8.656;2023-05-10T14:47:19;8.60;;;7.97;;
1765;SDS011;880;52.452;8.656;2023-05-10T14:49:47;8.23;;;7.50;;
1765;SDS011;880;52.452;8.656;2023-05-10T14:52:13;8.00;;;7.55;;
1765;SDS011;880;52.452;8.656;2023-05-10T14:54:41;9.05;;;8.32;;
1765;SDS011;880;52.452;8.656;2023-05-10T14:57:07;8.38;;;7.78;;
1765;SDS011;880;52.452;8.656;2023-05-10T14:59:34;9.07;;;8.48;;
1765;SDS011;880;52.452;8.656;2023-05-10T15:02:02;7.90;;;7.50;;
1765;SDS011;880;52.452;8.656;2023-05-10T15:04:30;7.90;;;7.50;;
1765;SDS011;880;52.452;8.656;2023-05-10T15:06:58;7.40;;;6.90;;
1765;SDS011;880;52.452;8.656;2023-05-10T15:09:25;8.40;;;7.90;;
1765;SDS011;880;52.452;8.656;2023-05-10T15:11:54;9.07;;;8.57;;
1765;SDS011;880;52.452;8.656;2023-05-10T15:14:21;9.20;;;8.52;;
1765;SDS011;880;52.452;8.656;2023-05-10T15:16:49;7.32;;;6.93;;
1765;SDS011;880;52.452;8.656;2023-05-10T15:19:16;7.13;;;6.80;;
1765;SDS011;880;52.452;8.656;2023-05-10T15:21:43;7.30;;;6.90;;
1765;SDS011;880;52.452;8.656;2023-05-10T15:24:10;8.10;;;7.70;;
1765;SDS011;880;52.452;8.656;2023-05-10T15:26:37;8.02;;;7.60;;
1765;SDS011;880;52.452;8.656;2023-05-10T15:29:04;7.93;;;7.53;;
1765;SDS011;880;52.452;8.656;2023-05-10T15:31:31;8.05;;;7.43;;
1765;SDS011;880;52.452;8.656;2023-05-10T15:34:02;36.92;;;30.15;;
1765;SDS011;880;52.452;8.656;2023-05-10T15:36:29;13.23;;;11.93;;
1765;SDS011;880;52.452;8.656;2023-05-10T15:38:57;9.27;;;8.55;;
1765;SDS011;880;52.452;8.656;2023-05-10T15:41:24;9.23;;;8.45;;
1765;SDS011;880;52.452;8.656;2023-05-10T15:43:51;9.45;;;8.73;;
1765;SDS011;880;52.452;8.656;2023-05-10T15:46:19;8.57;;;8.02;;
1765;SDS011;880;52.452;8.656;2023-05-10T15:48:46;7.80;;;7.40;;
1765;SDS011;880;52.452;8.656;2023-05-10T15:51:13;7.80;;;7.40;;
1765;SDS011;880;52.452;8.656;2023-05-10T15:53:41;8.27;;;7.68;;
1765;SDS011;880;52.452;8.656;2023-05-10T15:56:25;7.72;;;7.20;;
1765;SDS011;880;52.452;8.656;2023-05-10T15:58:52;8.70;;;7.95;;
1765;SDS011;880;52.452;8.656;2023-05-10T16:01:19;7.68;;;7.28;;
1765;SDS011;880;52.452;8.656;2023-05-10T16:03:47;8.27;;;7.88;;
1765;SDS011;880;52.452;8.656;2023-05-10T16:06:14;7.60;;;7.20;;
1765;SDS011;880;52.452;8.656;2023-05-10T16:08:40;8.80;;;8.02;;
1765;SDS011;880;52.452;8.656;2023-05-10T16:11:08;7.53;;;7.05;;
1765;SDS011;880;52.452;8.656;2023-05-10T16:13:35;8.13;;;7.65;;